• Join FlightAware (Why Join?)
  • Login
  • US Flag 
01:57AM EDT


 

Airport Tracker/Info


-or-


 

Live Flight TrackerFlight Track Log ✈ KAP927 ✈ 27-Jun-2013 ✈ KOGS - KALB

Flight Track Log - Related Links

Times and Time Zones

All times are in EDT time to prevent confusion due to time zone crossing. See the KAP927 flight status page for this flight to view local times or setup timezone preferences in your user account.

Time Position Orientation Groundspeed Altitude Reporting Facility
EDT Latitude Longitude Course Direction KTS MPH feet Rate Location/Type
05:09PM 44.4669 -75.2386 150° Southeast 154 177 4,100  Level Boston Center
05:10PM 44.4342 -75.2139 152° Southeast 149 171 4,500 360 Climbing Boston Center
05:11PM 44.3994 -75.1831 148° Southeast 149 171 4,900 300 Climbing Boston Center
05:12PM 44.3689 -75.1614 153° Southeast 143 165 5,200 300 Climbing Boston Center
05:13PM 44.3342 -75.1278 145° Southeast 138 159 5,500 300 Climbing Boston Center
05:14PM 44.4837 -75.2889 150° Southeast  Level Estimated
05:14PM 44.3014 -75.1031 152° Southeast 138 159 5,900  Level Boston Center
05:15PM 44.2689 -75.0697 144° Southeast 138 159 6,200 300 Climbing Boston Center
05:16PM 44.2361 -75.0450 152° Southeast 138 159 6,600 360 Climbing Boston Center
05:17PM 44.2033 -75.0147 146° Southeast 138 159 7,000 240 Climbing Boston Center
05:18PM 44.1706 -74.9872 149° Southeast 138 159 7,100  Climbing Boston Center
05:19PM 44.1358 -74.9569 148° Southeast 143 165 7,000 -60 Descending Boston Center
05:20PM 44.1011 -74.9264 148° Southeast 143 165 7,000  Level Boston Center
05:21PM 44.0664 -74.8961 148° Southeast 143 165 7,100  Climbing Boston Center
05:22PM 44.0314 -74.8717 153° Southeast 143 165 7,100  Level Boston Center
05:23PM 43.9967 -74.8383 145° Southeast 138 159 7,100  Level Boston Center
05:24PM 43.9619 -74.8081 148° Southeast 138 159 7,100  Level Boston Center
05:25PM 43.9269 -74.7781 148° Southeast 138 159 7,100  Level Boston Center
05:26PM 43.8942 -74.7536 152° Southeast 138 159 7,100 -60 Level Boston Center
05:27PM 43.8594 -74.7206 146° Southeast 138 159 7,000  Descending Boston Center
05:28PM 43.8225 -74.6875 147° Southeast 143 165 7,100  Climbing Boston Center
05:29PM 43.7836 -74.6572 151° Southeast 153 176 7,100 -60 Level Boston Center
05:30PM 43.7425 -74.6242 150° Southeast 158 182 7,000 -60 Descending Boston Center
05:31PM 43.7078 -74.5942 148° Southeast 158 182 7,000  Level Boston Center
05:32PM 43.6708 -74.5614 147° Southeast 158 182 7,000  Level Boston Center
05:33PM 43.6339 -74.5314 150° Southeast 158 182 7,100  Climbing Boston Center
05:34PM 43.5969 -74.4986 147° Southeast 158 182 7,100  Level Boston Center
05:35PM 43.5600 -74.4686 150° Southeast 158 182 7,100 -60 Level Boston Center
05:36PM 43.5228 -74.4417 152° Southeast 153 176 7,000 -60 Descending Boston Center
05:37PM 43.4881 -74.4119 148° Southeast 153 176 7,000  Level Boston Center
05:38PM 43.4469 -74.3789 150° Southeast 153 176 7,100  Climbing Boston Center
05:39PM 43.4097 -74.3492 150° Southeast 151 174 7,100  Level Boston Center
05:40PM 43.3708 -74.3139 147° Southeast 153 176 7,100  Level Boston Center
05:41PM 43.3358 -74.2869 151° Southeast 153 176 7,100  Level Boston Center
05:42PM 43.2989 -74.2572 150° Southeast 153 176 7,100 -60 Level Boston Center
05:43PM 43.2597 -74.2247 149° Southeast 153 176 7,000 -180 Descending Boston Center
05:44PM 43.2247 -74.1897 144° Southeast 153 176 6,800 -360 Descending Boston Center
05:45PM 43.1881 -74.1458 139° Southeast 169 194 6,300 -540 Descending Boston Center
05:46PM 43.1472 -74.0878 134° Southeast 176 203 5,700 -480 Descending Boston Center
05:47PM 43.1225 -74.0586 139° Southeast 179 206 5,400 -480 Descending Boston Center
05:48PM 43.0775 -74.0033 138° Southeast 173 199 4,800 -480 Descending Boston Center
05:49PM 43.0406 -73.9600 139° Southeast 174 200 4,400 -360 Descending Boston Center
05:50PM 43.0056 -73.9136 136° Southeast 167 192 4,100 -240 Descending Boston Center
05:51PM 42.9667 -73.8644 137° Southeast 169 194 3,900 -360 Descending Boston Center
05:52PM 42.9272 -73.8436 159° South 164 189 3,400 -600 Descending Boston Center
05:53PM 42.8839 -73.8286 166° South 178 205 2,900 -720 Descending Boston Center
05:54PM 42.8339 -73.8161 170° South 174 200 2,100 -960 Descending Boston Center
05:55PM 42.7903 -73.8094 174° South 148 170 1,000 -1,140 Descending Boston Center
05:57PM 42.7491 -73.8020 160° South  Level Estimated
06:04PM 42.7491 -73.8020 160° South  Level Estimated
06:05PM 42.7491 -73.8020 160° South  Level Estimated
06:06PM 42.7491 -73.8020 160° South  Level Estimated